sensor_id;sensor_type;location;lat;lon;timestamp;P1;P2;P0
65783;PMS5003;52532;53.358;-1.488;2022-07-25T00:03:00;16.0;14.7;
65783;PMS5003;52532;53.358;-1.488;2022-07-25T00:06:03;17.9;14.8;
65783;PMS5003;52532;53.358;-1.488;2022-07-25T00:09:06;19.7;16.1;
65783;PMS5003;52532;53.358;-1.488;2022-07-25T00:12:10;19.1;15.5;
65783;PMS5003;52532;53.358;-1.488;2022-07-25T00:18:04;12.9;12.3;
65783;PMS5003;52532;53.358;-1.488;2022-07-25T00:21:07;20.0;16.3;
65783;PMS5003;52532;53.358;-1.488;2022-07-25T00:24:10;21.4;16.5;
65783;PMS5003;52532;53.358;-1.488;2022-07-25T00:27:12;17.3;16.2;
65783;PMS5003;52532;53.358;-1.488;2022-07-25T00:30:15;13.0;10.8;
65783;PMS5003;52532;53.358;-1.488;2022-07-25T00:33:18;14.6;13.0;
65783;PMS5003;52532;53.358;-1.488;2022-07-25T00:36:21;18.0;15.4;
65783;PMS5003;52532;53.358;-1.488;2022-07-25T00:39:24;19.2;16.0;
65783;PMS5003;52532;53.358;-1.488;2022-07-25T00:42:27;22.3;16.1;
65783;PMS5003;52532;53.358;-1.488;2022-07-25T00:45:31;21.0;15.6;
65783;PMS5003;52532;53.358;-1.488;2022-07-25T00:48:34;22.0;17.0;
65783;PMS5003;52532;53.358;-1.488;2022-07-25T00:51:36;22.0;16.7;
65783;PMS5003;52532;53.358;-1.488;2022-07-25T00:54:39;21.3;17.2;
65783;PMS5003;52532;53.358;-1.488;2022-07-25T00:57:42;20.4;20.4;
65783;PMS5003;52532;53.358;-1.488;2022-07-25T01:00:45;18.1;16.9;
65783;PMS5003;52532;53.358;-1.488;2022-07-25T01:03:49;15.8;14.5;
65783;PMS5003;52532;53.358;-1.488;2022-07-25T01:06:52;14.2;12.8;
65783;PMS5003;52532;53.358;-1.488;2022-07-25T01:09:55;20.6;15.8;
65783;PMS5003;52532;53.358;-1.488;2022-07-25T01:12:58;19.3;15.1;
65783;PMS5003;52532;53.358;-1.488;2022-07-25T01:16:01;14.7;13.8;
65783;PMS5003;52532;53.358;-1.488;2022-07-25T01:19:05;19.0;16.9;
65783;PMS5003;52532;53.358;-1.488;2022-07-25T01:22:08;18.5;16.9;
65783;PMS5003;52532;53.358;-1.488;2022-07-25T01:25:12;18.1;14.2;
65783;PMS5003;52532;53.358;-1.488;2022-07-25T01:28:16;22.3;17.9;
65783;PMS5003;52532;53.358;-1.488;2022-07-25T01:31:20;20.7;16.5;
65783;PMS5003;52532;53.358;-1.488;2022-07-25T01:34:22;19.0;13.0;
65783;PMS5003;52532;53.358;-1.488;2022-07-25T01:37:25;13.5;11.3;
65783;PMS5003;52532;53.358;-1.488;2022-07-25T01:40:28;15.1;14.4;
65783;PMS5003;52532;53.358;-1.488;2022-07-25T01:43:31;15.8;15.1;
65783;PMS5003;52532;53.358;-1.488;2022-07-25T01:46:34;15.2;12.7;
65783;PMS5003;52532;53.358;-1.488;2022-07-25T01:49:37;19.9;17.5;
65783;PMS5003;52532;53.358;-1.488;2022-07-25T01:52:40;17.6;15.5;
65783;PMS5003;52532;53.358;-1.488;2022-07-25T01:55:45;21.4;15.8;
65783;PMS5003;52532;53.358;-1.488;2022-07-25T01:58:49;15.4;14.7;
65783;PMS5003;52532;53.358;-1.488;2022-07-25T02:01:52;15.7;14.5;
65783;PMS5003;52532;53.358;-1.488;2022-07-25T02:04:55;12.5;11.8;
65783;PMS5003;52532;53.358;-1.488;2022-07-25T02:07:58;18.2;14.9;
65783;PMS5003;52532;53.358;-1.488;2022-07-25T02:11:01;18.0;13.9;
65783;PMS5003;52532;53.358;-1.488;2022-07-25T02:14:04;13.8;13.2;
65783;PMS5003;52532;53.358;-1.488;2022-07-25T02:17:07;18.7;15.6;
65783;PMS5003;52532;53.358;-1.488;2022-07-25T02:20:10;20.3;16.1;
65783;PMS5003;52532;53.358;-1.488;2022-07-25T02:23:13;14.5;13.0;
65783;PMS5003;52532;53.358;-1.488;2022-07-25T02:26:16;16.3;16.1;
65783;PMS5003;52532;53.358;-1.488;2022-07-25T02:29:19;15.6;13.8;
65783;PMS5003;52532;53.358;-1.488;2022-07-25T02:32:22;17.1;12.0;
65783;PMS5003;52532;53.358;-1.488;2022-07-25T02:35:25;14.6;12.8;
65783;PMS5003;52532;53.358;-1.488;2022-07-25T02:38:28;19.2;15.5;
65783;PMS5003;52532;53.358;-1.488;2022-07-25T02:41:31;19.5;15.9;
65783;PMS5003;52532;53.358;-1.488;2022-07-25T02:44:34;21.4;13.6;
65783;PMS5003;52532;53.358;-1.488;2022-07-25T02:47:37;19.8;15.6;
65783;PMS5003;52532;53.358;-1.488;2022-07-25T02:50:40;18.9;15.8;
65783;PMS5003;52532;53.358;-1.488;2022-07-25T02:53:43;15.1;12.8;
65783;PMS5003;52532;53.358;-1.488;2022-07-25T02:56:46;14.6;13.4;
65783;PMS5003;52532;53.358;-1.488;2022-07-25T02:59:48;17.1;14.5;
65783;PMS5003;52532;53.358;-1.488;2022-07-25T03:02:51;18.8;14.3;
65783;PMS5003;52532;53.358;-1.488;2022-07-25T03:05:54;17.5;13.7;
65783;PMS5003;52532;53.358;-1.488;2022-07-25T03:08:57;16.6;15.1;
65783;PMS5003;52532;53.358;-1.488;2022-07-25T03:12:00;18.6;16.8;
65783;PMS5003;52532;53.358;-1.488;2022-07-25T03:15:04;17.7;15.2;
65783;PMS5003;52532;53.358;-1.488;2022-07-25T03:18:08;20.3;16.3;
65783;PMS5003;52532;53.358;-1.488;2022-07-25T03:21:11;18.6;14.2;
65783;PMS5003;52532;53.358;-1.488;2022-07-25T03:24:14;14.0;13.3;
65783;PMS5003;52532;53.358;-1.488;2022-07-25T03:27:17;18.4;16.5;
65783;PMS5003;52532;53.358;-1.488;2022-07-25T03:30:20;14.7;13.9;
65783;PMS5003;52532;53.358;-1.488;2022-07-25T03:33:23;17.6;14.2;
65783;PMS5003;52532;53.358;-1.488;2022-07-25T03:36:31;15.2;14.4;
65783;PMS5003;52532;53.358;-1.488;2022-07-25T03:39:34;16.4;15.8;
65783;PMS5003;52532;53.358;-1.488;2022-07-25T03:42:37;20.6;17.3;
65783;PMS5003;52532;53.358;-1.488;2022-07-25T03:45:40;16.9;15.2;
65783;PMS5003;52532;53.358;-1.488;2022-07-25T03:48:43;18.0;16.0;
65783;PMS5003;52532;53.358;-1.488;2022-07-25T03:51:46;16.1;12.7;
65783;PMS5003;52532;53.358;-1.488;2022-07-25T03:54:49;17.5;16.2;
65783;PMS5003;52532;53.358;-1.488;2022-07-25T03:57:51;17.4;15.1;
65783;PMS5003;52532;53.358;-1.488;2022-07-25T04:00:54;19.8;16.9;
65783;PMS5003;52532;53.358;-1.488;2022-07-25T04:03:57;15.8;12.8;
65783;PMS5003;52532;53.358;-1.488;2022-07-25T04:07:00;19.0;15.8;
65783;PMS5003;52532;53.358;-1.488;2022-07-25T04:10:04;19.6;15.3;
65783;PMS5003;52532;53.358;-1.488;2022-07-25T04:13:08;23.5;14.5;
65783;PMS5003;52532;53.358;-1.488;2022-07-25T04:16:11;18.4;15.4;
65783;PMS5003;52532;53.358;-1.488;2022-07-25T04:19:15;17.3;13.8;
65783;PMS5003;52532;53.358;-1.488;2022-07-25T04:22:18;12.1;10.4;
65783;PMS5003;52532;53.358;-1.488;2022-07-25T04:25:21;18.2;16.2;
65783;PMS5003;52532;53.358;-1.488;2022-07-25T04:28:24;19.4;17.1;
65783;PMS5003;52532;53.358;-1.488;2022-07-25T04:31:27;20.8;16.9;
65783;PMS5003;52532;53.358;-1.488;2022-07-25T04:34:30;21.5;15.9;
65783;PMS5003;52532;53.358;-1.488;2022-07-25T04:37:33;20.1;15.9;
65783;PMS5003;52532;53.358;-1.488;2022-07-25T04:40:38;18.5;15.8;
65783;PMS5003;52532;53.358;-1.488;2022-07-25T04:43:41;18.0;14.6;
65783;PMS5003;52532;53.358;-1.488;2022-07-25T04:46:44;18.9;15.5;
65783;PMS5003;52532;53.358;-1.488;2022-07-25T04:49:47;21.2;15.0;
65783;PMS5003;52532;53.358;-1.488;2022-07-25T04:52:50;17.1;15.4;
65783;PMS5003;52532;53.358;-1.488;2022-07-25T04:55:53;16.5;14.0;
65783;PMS5003;52532;53.358;-1.488;2022-07-25T04:58:56;16.0;13.2;
65783;PMS5003;52532;53.358;-1.488;2022-07-25T05:01:59;21.1;16.6;
65783;PMS5003;52532;53.358;-1.488;2022-07-25T05:05:03;17.2;15.9;
65783;PMS5003;52532;53.358;-1.488;2022-07-25T05:08:07;15.6;14.2;
65783;PMS5003;52532;53.358;-1.488;2022-07-25T05:11:09;14.4;13.6;
65783;PMS5003;52532;53.358;-1.488;2022-07-25T05:14:12;16.3;15.1;
65783;PMS5003;52532;53.358;-1.488;2022-07-25T05:17:15;17.7;16.5;
65783;PMS5003;52532;53.358;-1.488;2022-07-25T05:20:18;17.7;16.8;
65783;PMS5003;52532;53.358;-1.488;2022-07-25T05:23:21;17.5;15.0;
65783;PMS5003;52532;53.358;-1.488;2022-07-25T05:26:24;18.2;15.7;
65783;PMS5003;52532;53.358;-1.488;2022-07-25T05:29:27;15.8;14.6;
65783;PMS5003;52532;53.358;-1.488;2022-07-25T05:32:30;16.4;13.5;
65783;PMS5003;52532;53.358;-1.488;2022-07-25T05:35:33;18.2;14.1;
65783;PMS5003;52532;53.358;-1.488;2022-07-25T05:38:36;15.7;13.8;
65783;PMS5003;52532;53.358;-1.488;2022-07-25T05:41:39;17.5;15.1;
65783;PMS5003;52532;53.358;-1.488;2022-07-25T05:44:41;15.1;12.5;
65783;PMS5003;52532;53.358;-1.488;2022-07-25T05:47:49;14.0;12.8;
65783;PMS5003;52532;53.358;-1.488;2022-07-25T05:50:52;17.6;16.0;
65783;PMS5003;52532;53.358;-1.488;2022-07-25T05:53:55;15.5;11.3;
65783;PMS5003;52532;53.358;-1.488;2022-07-25T05:56:58;19.6;13.7;
65783;PMS5003;52532;53.358;-1.488;2022-07-25T06:00:03;12.9;11.9;
65783;PMS5003;52532;53.358;-1.488;2022-07-25T06:03:08;19.1;18.3;
65783;PMS5003;52532;53.358;-1.488;2022-07-25T06:06:11;19.8;17.6;
65783;PMS5003;52532;53.358;-1.488;2022-07-25T06:09:14;15.0;14.6;
65783;PMS5003;52532;53.358;-1.488;2022-07-25T06:12:17;17.5;13.8;
65783;PMS5003;52532;53.358;-1.488;2022-07-25T06:15:20;14.0;12.1;
65783;PMS5003;52532;53.358;-1.488;2022-07-25T06:18:22;11.6;10.9;
65783;PMS5003;52532;53.358;-1.488;2022-07-25T06:21:26;14.7;13.5;
65783;PMS5003;52532;53.358;-1.488;2022-07-25T06:24:29;13.3;11.5;
65783;PMS5003;52532;53.358;-1.488;2022-07-25T06:27:32;10.8;9.9;
65783;PMS5003;52532;53.358;-1.488;2022-07-25T06:30:36;17.9;15.2;
65783;PMS5003;52532;53.358;-1.488;2022-07-25T06:33:39;17.7;14.8;
65783;PMS5003;52532;53.358;-1.488;2022-07-25T06:36:42;14.5;12.6;
65783;PMS5003;52532;53.358;-1.488;2022-07-25T06:39:45;14.7;14.1;
65783;PMS5003;52532;53.358;-1.488;2022-07-25T06:42:48;16.6;15.9;
65783;PMS5003;52532;53.358;-1.488;2022-07-25T06:45:51;13.3;12.7;
65783;PMS5003;52532;53.358;-1.488;2022-07-25T06:48:54;12.9;12.7;
65783;PMS5003;52532;53.358;-1.488;2022-07-25T06:51:57;14.7;13.6;
65783;PMS5003;52532;53.358;-1.488;2022-07-25T06:55:00;16.2;13.9;
65783;PMS5003;52532;53.358;-1.488;2022-07-25T06:58:03;14.8;11.7;
65783;PMS5003;52532;53.358;-1.488;2022-07-25T07:01:06;10.3;9.8;
65783;PMS5003;52532;53.358;-1.488;2022-07-25T07:04:09;11.3;10.4;
65783;PMS5003;52532;53.358;-1.488;2022-07-25T07:07:12;8.5;8.2;
65783;PMS5003;52532;53.358;-1.488;2022-07-25T07:13:01;9.8;9.2;
65783;PMS5003;52532;53.358;-1.488;2022-07-25T07:16:06;8.0;8.0;
65783;PMS5003;52532;53.358;-1.488;2022-07-25T07:19:09;8.0;7.8;
65783;PMS5003;52532;53.358;-1.488;2022-07-25T07:22:12;7.7;7.7;
65783;PMS5003;52532;53.358;-1.488;2022-07-25T07:25:15;8.8;8.6;
65783;PMS5003;52532;53.358;-1.488;2022-07-25T07:28:20;6.5;6.5;
65783;PMS5003;52532;53.358;-1.488;2022-07-25T07:31:26;9.5;8.2;
65783;PMS5003;52532;53.358;-1.488;2022-07-25T07:34:36;8.1;7.9;
65783;PMS5003;52532;53.358;-1.488;2022-07-25T07:40:34;6.1;6.1;
65783;PMS5003;52532;53.358;-1.488;2022-07-25T07:43:37;8.0;6.8;
65783;PMS5003;52532;53.358;-1.488;2022-07-25T07:46:40;7.4;5.7;
65783;PMS5003;52532;53.358;-1.488;2022-07-25T07:49:43;8.7;8.2;
65783;PMS5003;52532;53.358;-1.488;2022-07-25T07:52:46;8.3;7.2;
65783;PMS5003;52532;53.358;-1.488;2022-07-25T07:55:50;8.7;7.4;
65783;PMS5003;52532;53.358;-1.488;2022-07-25T07:58:55;7.9;7.3;
65783;PMS5003;52532;53.358;-1.488;2022-07-25T08:04:39;8.4;7.1;
65783;PMS5003;52532;53.358;-1.488;2022-07-25T08:07:42;5.2;4.9;
65783;PMS5003;52532;53.358;-1.488;2022-07-25T08:10:46;11.3;5.9;
65783;PMS5003;52532;53.358;-1.488;2022-07-25T08:13:50;7.0;7.0;
65783;PMS5003;52532;53.358;-1.488;2022-07-25T08:16:53;9.7;8.6;
65783;PMS5003;52532;53.358;-1.488;2022-07-25T08:19:58;7.3;7.3;
65783;PMS5003;52532;53.358;-1.488;2022-07-25T08:23:01;10.1;8.6;
65783;PMS5003;52532;53.358;-1.488;2022-07-25T08:26:05;7.1;6.1;
65783;PMS5003;52532;53.358;-1.488;2022-07-25T08:29:08;7.3;6.9;
65783;PMS5003;52532;53.358;-1.488;2022-07-25T08:32:11;11.2;9.3;
65783;PMS5003;52532;53.358;-1.488;2022-07-25T08:35:14;7.7;6.0;
65783;PMS5003;52532;53.358;-1.488;2022-07-25T08:38:18;6.6;6.6;
65783;PMS5003;52532;53.358;-1.488;2022-07-25T08:41:21;11.0;10.2;
65783;PMS5003;52532;53.358;-1.488;2022-07-25T08:44:25;5.0;5.0;
65783;PMS5003;52532;53.358;-1.488;2022-07-25T08:47:33;5.3;4.7;
65783;PMS5003;52532;53.358;-1.488;2022-07-25T08:50:37;6.6;6.5;
65783;PMS5003;52532;53.358;-1.488;2022-07-25T08:53:40;4.8;4.8;
65783;PMS5003;52532;53.358;-1.488;2022-07-25T08:56:44;5.3;5.3;
65783;PMS5003;52532;53.358;-1.488;2022-07-25T08:59:47;6.1;5.2;
65783;PMS5003;52532;53.358;-1.488;2022-07-25T09:02:50;7.1;6.1;
65783;PMS5003;52532;53.358;-1.488;2022-07-25T09:05:54;5.7;5.0;
65783;PMS5003;52532;53.358;-1.488;2022-07-25T09:08:58;5.9;3.8;
65783;PMS5003;52532;53.358;-1.488;2022-07-25T09:12:01;6.9;6.1;
65783;PMS5003;52532;53.358;-1.488;2022-07-25T09:15:06;6.0;3.8;
65783;PMS5003;52532;53.358;-1.488;2022-07-25T09:18:10;5.4;5.0;
65783;PMS5003;52532;53.358;-1.488;2022-07-25T09:21:16;6.8;6.8;
65783;PMS5003;52532;53.358;-1.488;2022-07-25T09:24:19;7.2;7.2;
65783;PMS5003;52532;53.358;-1.488;2022-07-25T09:27:23;9.5;7.0;
65783;PMS5003;52532;53.358;-1.488;2022-07-25T09:30:26;9.5;7.8;
65783;PMS5003;52532;53.358;-1.488;2022-07-25T09:33:30;7.4;7.4;
65783;PMS5003;52532;53.358;-1.488;2022-07-25T09:36:33;6.4;6.4;
65783;PMS5003;52532;53.358;-1.488;2022-07-25T09:42:33;6.4;4.5;
65783;PMS5003;52532;53.358;-1.488;2022-07-25T09:45:47;6.8;6.6;
65783;PMS5003;52532;53.358;-1.488;2022-07-25T09:48:55;8.0;7.8;
65783;PMS5003;52532;53.358;-1.488;2022-07-25T09:51:59;8.9;8.2;
65783;PMS5003;52532;53.358;-1.488;2022-07-25T09:55:02;9.5;9.3;
65783;PMS5003;52532;53.358;-1.488;2022-07-25T09:58:07;8.0;8.0;
65783;PMS5003;52532;53.358;-1.488;2022-07-25T10:01:10;9.2;9.2;
65783;PMS5003;52532;53.358;-1.488;2022-07-25T10:04:21;6.8;4.4;
65783;PMS5003;52532;53.358;-1.488;2022-07-25T10:07:39;5.9;5.3;
65783;PMS5003;52532;53.358;-1.488;2022-07-25T10:10:50;7.0;7.0;
65783;PMS5003;52532;53.358;-1.488;2022-07-25T10:13:55;6.4;5.4;
65783;PMS5003;52532;53.358;-1.488;2022-07-25T10:16:59;7.8;6.3;
65783;PMS5003;52532;53.358;-1.488;2022-07-25T10:20:04;10.0;7.7;
65783;PMS5003;52532;53.358;-1.488;2022-07-25T10:23:26;6.7;5.9;
65783;PMS5003;52532;53.358;-1.488;2022-07-25T10:26:31;7.7;5.6;
65783;PMS5003;52532;53.358;-1.488;2022-07-25T10:29:36;7.4;7.1;
65783;PMS5003;52532;53.358;-1.488;2022-07-25T10:32:39;9.9;8.5;
65783;PMS5003;52532;53.358;-1.488;2022-07-25T10:35:51;8.9;7.9;
65783;PMS5003;52532;53.358;-1.488;2022-07-25T10:38:55;10.4;10.0;
65783;PMS5003;52532;53.358;-1.488;2022-07-25T10:42:00;6.6;6.6;
65783;PMS5003;52532;53.358;-1.488;2022-07-25T10:45:07;7.8;7.8;
65783;PMS5003;52532;53.358;-1.488;2022-07-25T10:48:11;5.6;5.6;
65783;PMS5003;52532;53.358;-1.488;2022-07-25T10:51:25;6.5;5.5;
65783;PMS5003;52532;53.358;-1.488;2022-07-25T10:54:32;10.0;8.6;
65783;PMS5003;52532;53.358;-1.488;2022-07-25T10:57:35;7.1;7.0;
65783;PMS5003;52532;53.358;-1.488;2022-07-25T11:00:41;9.5;8.9;
65783;PMS5003;52532;53.358;-1.488;2022-07-25T11:03:45;7.2;7.2;
65783;PMS5003;52532;53.358;-1.488;2022-07-25T11:06:49;9.3;8.9;
65783;PMS5003;52532;53.358;-1.488;2022-07-25T11:09:55;13.1;12.7;
65783;PMS5003;52532;53.358;-1.488;2022-07-25T11:12:58;11.0;9.9;
65783;PMS5003;52532;53.358;-1.488;2022-07-25T11:16:01;12.2;9.6;
65783;PMS5003;52532;53.358;-1.488;2022-07-25T11:19:14;8.4;7.8;
65783;PMS5003;52532;53.358;-1.488;2022-07-25T11:22:18;7.3;5.9;
65783;PMS5003;52532;53.358;-1.488;2022-07-25T11:25:21;9.6;7.8;
65783;PMS5003;52532;53.358;-1.488;2022-07-25T11:28:24;8.5;8.0;
65783;PMS5003;52532;53.358;-1.488;2022-07-25T11:31:38;7.5;5.4;
65783;PMS5003;52532;53.358;-1.488;2022-07-25T11:34:42;6.5;6.3;
65783;PMS5003;52532;53.358;-1.488;2022-07-25T11:37:48;11.4;8.1;
65783;PMS5003;52532;53.358;-1.488;2022-07-25T11:40:52;11.9;9.3;
65783;PMS5003;52532;53.358;-1.488;2022-07-25T11:43:55;7.9;6.0;
65783;PMS5003;52532;53.358;-1.488;2022-07-25T11:46:58;6.7;5.9;
65783;PMS5003;52532;53.358;-1.488;2022-07-25T11:50:02;9.9;8.6;
65783;PMS5003;52532;53.358;-1.488;2022-07-25T11:53:07;6.0;6.0;
65783;PMS5003;52532;53.358;-1.488;2022-07-25T11:56:12;6.1;5.3;
65783;PMS5003;52532;53.358;-1.488;2022-07-25T11:59:17;6.7;6.1;
65783;PMS5003;52532;53.358;-1.488;2022-07-25T12:02:21;7.5;5.5;
65783;PMS5003;52532;53.358;-1.488;2022-07-25T12:05:30;8.6;6.9;
65783;PMS5003;52532;53.358;-1.488;2022-07-25T12:08:36;6.2;5.3;
65783;PMS5003;52532;53.358;-1.488;2022-07-25T12:11:40;6.1;6.1;
65783;PMS5003;52532;53.358;-1.488;2022-07-25T12:14:43;6.5;5.8;
65783;PMS5003;52532;53.358;-1.488;2022-07-25T12:17:47;6.3;5.8;
65783;PMS5003;52532;53.358;-1.488;2022-07-25T12:20:51;4.8;4.3;
65783;PMS5003;52532;53.358;-1.488;2022-07-25T12:23:58;4.9;4.1;
65783;PMS5003;52532;53.358;-1.488;2022-07-25T12:27:01;5.2;4.9;
65783;PMS5003;52532;53.358;-1.488;2022-07-25T12:30:05;7.5;7.5;
65783;PMS5003;52532;53.358;-1.488;2022-07-25T12:33:14;3.8;3.5;
65783;PMS5003;52532;53.358;-1.488;2022-07-25T12:36:18;4.3;3.6;
65783;PMS5003;52532;53.358;-1.488;2022-07-25T12:39:20;6.8;5.0;
65783;PMS5003;52532;53.358;-1.488;2022-07-25T12:42:24;5.0;5.0;
65783;PMS5003;52532;53.358;-1.488;2022-07-25T12:45:29;4.9;4.9;
65783;PMS5003;52532;53.358;-1.488;2022-07-25T12:48:32;8.3;7.5;
65783;PMS5003;52532;53.358;-1.488;2022-07-25T12:51:35;8.9;7.2;
65783;PMS5003;52532;53.358;-1.488;2022-07-25T12:54:38;8.2;6.4;
65783;PMS5003;52532;53.358;-1.488;2022-07-25T12:57:41;7.0;6.1;
65783;PMS5003;52532;53.358;-1.488;2022-07-25T13:00:49;5.0;5.0;
65783;PMS5003;52532;53.358;-1.488;2022-07-25T13:03:52;6.0;5.5;
65783;PMS5003;52532;53.358;-1.488;2022-07-25T13:06:55;5.4;5.4;
65783;PMS5003;52532;53.358;-1.488;2022-07-25T13:09:59;7.0;6.5;
65783;PMS5003;52532;53.358;-1.488;2022-07-25T13:13:02;6.3;6.1;
65783;PMS5003;52532;53.358;-1.488;2022-07-25T13:16:05;9.3;6.2;
65783;PMS5003;52532;53.358;-1.488;2022-07-25T13:19:08;10.1;7.8;
65783;PMS5003;52532;53.358;-1.488;2022-07-25T13:22:12;5.2;5.1;
65783;PMS5003;52532;53.358;-1.488;2022-07-25T13:28:06;6.9;5.5;
65783;PMS5003;52532;53.358;-1.488;2022-07-25T13:31:09;10.0;6.7;
65783;PMS5003;52532;53.358;-1.488;2022-07-25T13:34:12;10.3;7.0;
65783;PMS5003;52532;53.358;-1.488;2022-07-25T13:37:15;7.8;7.7;
65783;PMS5003;52532;53.358;-1.488;2022-07-25T13:40:17;6.2;6.2;
65783;PMS5003;52532;53.358;-1.488;2022-07-25T13:43:20;6.2;5.9;
65783;PMS5003;52532;53.358;-1.488;2022-07-25T13:46:23;5.4;5.2;
65783;PMS5003;52532;53.358;-1.488;2022-07-25T13:49:26;7.7;7.5;
65783;PMS5003;52532;53.358;-1.488;2022-07-25T13:55:40;6.0;6.0;
65783;PMS5003;52532;53.358;-1.488;2022-07-25T13:58:44;9.1;8.0;
65783;PMS5003;52532;53.358;-1.488;2022-07-25T14:01:47;9.2;7.0;
65783;PMS5003;52532;53.358;-1.488;2022-07-25T14:04:50;7.7;6.8;
65783;PMS5003;52532;53.358;-1.488;2022-07-25T14:07:53;5.8;5.8;
65783;PMS5003;52532;53.358;-1.488;2022-07-25T14:10:56;5.6;5.6;
65783;PMS5003;52532;53.358;-1.488;2022-07-25T14:13:59;6.3;6.3;
65783;PMS5003;52532;53.358;-1.488;2022-07-25T14:17:02;5.7;5.7;
65783;PMS5003;52532;53.358;-1.488;2022-07-25T14:20:06;5.2;5.2;
65783;PMS5003;52532;53.358;-1.488;2022-07-25T14:23:10;6.2;5.9;
65783;PMS5003;52532;53.358;-1.488;2022-07-25T14:26:13;6.3;6.0;
65783;PMS5003;52532;53.358;-1.488;2022-07-25T14:29:16;4.5;4.3;
65783;PMS5003;52532;53.358;-1.488;2022-07-25T14:32:18;4.3;4.3;
65783;PMS5003;52532;53.358;-1.488;2022-07-25T14:35:21;4.4;4.4;
65783;PMS5003;52532;53.358;-1.488;2022-07-25T14:38:24;5.8;5.8;
65783;PMS5003;52532;53.358;-1.488;2022-07-25T14:41:27;6.0;6.0;
65783;PMS5003;52532;53.358;-1.488;2022-07-25T14:44:30;6.4;6.4;
65783;PMS5003;52532;53.358;-1.488;2022-07-25T14:47:33;7.6;7.6;
65783;PMS5003;52532;53.358;-1.488;2022-07-25T14:50:38;6.2;5.5;
65783;PMS5003;52532;53.358;-1.488;2022-07-25T14:53:42;5.5;4.7;
65783;PMS5003;52532;53.358;-1.488;2022-07-25T14:56:45;8.5;7.2;
65783;PMS5003;52532;53.358;-1.488;2022-07-25T14:59:48;5.0;4.9;
65783;PMS5003;52532;53.358;-1.488;2022-07-25T15:02:51;4.0;4.0;
65783;PMS5003;52532;53.358;-1.488;2022-07-25T15:05:54;6.0;6.0;
65783;PMS5003;52532;53.358;-1.488;2022-07-25T15:08:57;4.6;3.3;
65783;PMS5003;52532;53.358;-1.488;2022-07-25T15:11:59;5.7;3.0;
65783;PMS5003;52532;53.358;-1.488;2022-07-25T15:15:03;4.8;4.8;
65783;PMS5003;52532;53.358;-1.488;2022-07-25T15:18:06;5.3;4.6;
65783;PMS5003;52532;53.358;-1.488;2022-07-25T15:21:22;4.8;4.6;
65783;PMS5003;52532;53.358;-1.488;2022-07-25T15:24:44;5.8;5.5;
65783;PMS5003;52532;53.358;-1.488;2022-07-25T15:30:28;5.1;5.1;
65783;PMS5003;52532;53.358;-1.488;2022-07-25T15:33:37;5.5;5.5;
65783;PMS5003;52532;53.358;-1.488;2022-07-25T15:37:05;4.2;4.2;
65783;PMS5003;52532;53.358;-1.488;2022-07-25T15:40:22;6.4;4.3;
65783;PMS5003;52532;53.358;-1.488;2022-07-25T15:43:38;7.2;6.3;
65783;PMS5003;52532;53.358;-1.488;2022-07-25T15:46:55;8.1;4.4;
65783;PMS5003;52532;53.358;-1.488;2022-07-25T15:50:11;7.3;6.0;
65783;PMS5003;52532;53.358;-1.488;2022-07-25T15:53:30;7.7;6.3;
65783;PMS5003;52532;53.358;-1.488;2022-07-25T15:56:34;6.5;6.5;
65783;PMS5003;52532;53.358;-1.488;2022-07-25T15:59:37;7.0;7.0;
65783;PMS5003;52532;53.358;-1.488;2022-07-25T16:02:46;5.5;4.9;
65783;PMS5003;52532;53.358;-1.488;2022-07-25T16:05:49;9.1;6.4;
65783;PMS5003;52532;53.358;-1.488;2022-07-25T16:08:55;8.0;6.4;
65783;PMS5003;52532;53.358;-1.488;2022-07-25T16:12:11;6.2;4.5;
65783;PMS5003;52532;53.358;-1.488;2022-07-25T16:15:28;6.7;6.7;
65783;PMS5003;52532;53.358;-1.488;2022-07-25T16:21:37;6.3;5.7;
65783;PMS5003;52532;53.358;-1.488;2022-07-25T16:24:57;5.0;4.4;
65783;PMS5003;52532;53.358;-1.488;2022-07-25T16:28:14;4.9;4.6;
65783;PMS5003;52532;53.358;-1.488;2022-07-25T16:31:17;3.6;3.0;
65783;PMS5003;52532;53.358;-1.488;2022-07-25T16:34:20;4.3;4.3;
65783;PMS5003;52532;53.358;-1.488;2022-07-25T16:37:25;4.5;4.5;
65783;PMS5003;52532;53.358;-1.488;2022-07-25T16:40:44;3.8;3.8;
65783;PMS5003;52532;53.358;-1.488;2022-07-25T16:43:52;2.3;2.3;
65783;PMS5003;52532;53.358;-1.488;2022-07-25T16:46:55;4.0;3.2;
65783;PMS5003;52532;53.358;-1.488;2022-07-25T16:49:58;4.0;4.0;
65783;PMS5003;52532;53.358;-1.488;2022-07-25T16:53:04;3.2;3.2;
65783;PMS5003;52532;53.358;-1.488;2022-07-25T16:56:17;5.0;4.4;
65783;PMS5003;52532;53.358;-1.488;2022-07-25T16:59:25;4.9;4.9;
65783;PMS5003;52532;53.358;-1.488;2022-07-25T17:02:28;4.8;4.5;
65783;PMS5003;52532;53.358;-1.488;2022-07-25T17:05:31;3.3;3.0;
65783;PMS5003;52532;53.358;-1.488;2022-07-25T17:08:37;3.8;3.8;
65783;PMS5003;52532;53.358;-1.488;2022-07-25T17:11:46;2.0;2.0;
65783;PMS5003;52532;53.358;-1.488;2022-07-25T17:14:49;5.5;4.8;
65783;PMS5003;52532;53.358;-1.488;2022-07-25T17:17:57;4.8;4.5;
65783;PMS5003;52532;53.358;-1.488;2022-07-25T17:21:03;3.6;3.1;
65783;PMS5003;52532;53.358;-1.488;2022-07-25T17:24:15;3.3;3.3;
65783;PMS5003;52532;53.358;-1.488;2022-07-25T17:27:18;4.0;4.0;
65783;PMS5003;52532;53.358;-1.488;2022-07-25T17:30:21;5.7;5.3;
65783;PMS5003;52532;53.358;-1.488;2022-07-25T17:33:28;3.3;3.3;
65783;PMS5003;52532;53.358;-1.488;2022-07-25T17:36:42;4.6;4.2;
65783;PMS5003;52532;53.358;-1.488;2022-07-25T17:40:09;5.0;5.0;
65783;PMS5003;52532;53.358;-1.488;2022-07-25T17:43:13;3.9;3.9;
65783;PMS5003;52532;53.358;-1.488;2022-07-25T17:46:15;7.0;7.0;
65783;PMS5003;52532;53.358;-1.488;2022-07-25T17:49:19;7.0;6.5;
65783;PMS5003;52532;53.358;-1.488;2022-07-25T17:52:22;5.9;5.9;
65783;PMS5003;52532;53.358;-1.488;2022-07-25T17:55:25;5.2;4.3;
65783;PMS5003;52532;53.358;-1.488;2022-07-25T18:01:30;7.2;4.2;
65783;PMS5003;52532;53.358;-1.488;2022-07-25T18:04:33;4.7;3.9;
65783;PMS5003;52532;53.358;-1.488;2022-07-25T18:07:37;4.8;4.8;
65783;PMS5003;52532;53.358;-1.488;2022-07-25T18:10:42;4.8;4.8;
65783;PMS5003;52532;53.358;-1.488;2022-07-25T18:13:45;6.5;5.8;
65783;PMS5003;52532;53.358;-1.488;2022-07-25T18:16:48;6.1;5.1;
65783;PMS5003;52532;53.358;-1.488;2022-07-25T18:19:55;5.0;5.0;
65783;PMS5003;52532;53.358;-1.488;2022-07-25T18:23:07;5.6;5.6;
65783;PMS5003;52532;53.358;-1.488;2022-07-25T18:26:10;4.4;4.4;
65783;PMS5003;52532;53.358;-1.488;2022-07-25T18:29:13;4.3;4.3;
65783;PMS5003;52532;53.358;-1.488;2022-07-25T18:32:16;4.3;4.3;
65783;PMS5003;52532;53.358;-1.488;2022-07-25T18:35:19;3.4;3.0;
65783;PMS5003;52532;53.358;-1.488;2022-07-25T18:38:31;3.5;3.5;
65783;PMS5003;52532;53.358;-1.488;2022-07-25T18:41:40;5.0;4.3;
65783;PMS5003;52532;53.358;-1.488;2022-07-25T18:44:42;3.9;3.3;
65783;PMS5003;52532;53.358;-1.488;2022-07-25T18:50:43;4.2;4.2;
65783;PMS5003;52532;53.358;-1.488;2022-07-25T18:53:46;4.0;4.0;
65783;PMS5003;52532;53.358;-1.488;2022-07-25T18:56:50;2.8;2.8;
65783;PMS5003;52532;53.358;-1.488;2022-07-25T18:59:53;4.1;3.0;
65783;PMS5003;52532;53.358;-1.488;2022-07-25T19:03:01;3.4;3.2;
65783;PMS5003;52532;53.358;-1.488;2022-07-25T19:06:09;8.3;4.2;
65783;PMS5003;52532;53.358;-1.488;2022-07-25T19:09:12;6.8;5.2;
65783;PMS5003;52532;53.358;-1.488;2022-07-25T19:12:15;3.4;3.2;
65783;PMS5003;52532;53.358;-1.488;2022-07-25T19:15:19;3.2;3.2;
65783;PMS5003;52532;53.358;-1.488;2022-07-25T19:18:22;4.5;4.5;
65783;PMS5003;52532;53.358;-1.488;2022-07-25T19:21:25;4.0;4.0;
65783;PMS5003;52532;53.358;-1.488;2022-07-25T19:24:29;3.2;3.2;
65783;PMS5003;52532;53.358;-1.488;2022-07-25T19:27:32;7.9;6.2;
65783;PMS5003;52532;53.358;-1.488;2022-07-25T19:30:37;4.9;4.9;
65783;PMS5003;52532;53.358;-1.488;2022-07-25T19:33:40;3.8;3.8;
65783;PMS5003;52532;53.358;-1.488;2022-07-25T19:36:53;3.4;3.4;
65783;PMS5003;52532;53.358;-1.488;2022-07-25T19:39:57;4.0;4.0;
65783;PMS5003;52532;53.358;-1.488;2022-07-25T19:43:00;4.6;3.9;
65783;PMS5003;52532;53.358;-1.488;2022-07-25T19:46:03;5.9;5.6;